createdAt,value
2019-05-03T00:01:39.458Z,65.50
2019-05-03T00:04:07.857Z,65.60
2019-05-03T00:06:36.256Z,65.70
2019-05-03T00:09:08.199Z,65.80
2019-05-03T00:11:36.660Z,66.00
2019-05-03T00:14:05.727Z,66.10
2019-05-03T00:16:36.207Z,66.10
2019-05-03T00:19:04.741Z,66.20
2019-05-03T00:21:34.731Z,66.30
2019-05-03T00:24:03.453Z,66.40
2019-05-03T00:26:31.924Z,66.60
2019-05-03T00:29:02.104Z,66.80
2019-05-03T00:31:31.905Z,66.90
2019-05-03T00:34:12.483Z,66.90
2019-05-03T00:36:42.654Z,66.90
2019-05-03T00:39:32.528Z,67.10
2019-05-03T00:42:02.698Z,67.10
2019-05-03T00:44:31.741Z,67.20
2019-05-03T00:47:01.786Z,67.80
2019-05-03T00:49:32.065Z,68.20
2019-05-03T00:52:02.321Z,68.60
2019-05-03T00:54:33.517Z,69.10
2019-05-03T00:57:02.704Z,69.30
2019-05-03T00:59:32.646Z,69.30
2019-05-03T01:02:02.691Z,68.60
2019-05-03T01:04:31.805Z,67.90
2019-05-03T01:07:02.119Z,66.70
2019-05-03T01:09:31.745Z,66.00
2019-05-03T01:12:01.952Z,65.60
2019-05-03T01:14:31.685Z,64.60
2019-05-03T01:17:02.474Z,64.20
2019-05-03T01:19:32.061Z,63.50
2019-05-03T01:22:01.963Z,63.40
2019-05-03T01:24:32.293Z,62.80
2019-05-03T01:27:01.983Z,62.70
2019-05-03T01:29:32.274Z,62.40
2019-05-03T01:32:02.299Z,61.90
2019-05-03T01:34:32.602Z,61.90
2019-05-03T01:37:02.621Z,61.60
2019-05-03T01:39:31.605Z,61.60
2019-05-03T01:42:02.504Z,61.50
2019-05-03T01:44:32.517Z,61.50
2019-05-03T01:47:02.549Z,61.80
2019-05-03T01:49:44.610Z,62.00
2019-05-03T01:52:15.238Z,62.20
2019-05-03T01:54:43.939Z,62.30
2019-05-03T01:57:12.362Z,62.70
2019-05-03T01:59:42.495Z,62.70
2019-05-03T02:02:14.305Z,62.10
2019-05-03T02:04:44.665Z,60.60
2019-05-03T02:07:13.056Z,60.50
2019-05-03T02:09:41.745Z,60.60
2019-05-03T02:12:10.255Z,60.10
2019-05-03T02:14:38.641Z,60.50
2019-05-03T02:17:07.102Z,60.40
2019-05-03T02:19:35.859Z,60.10
2019-05-03T02:22:04.544Z,60.20
2019-05-03T02:24:33.174Z,60.50
2019-05-03T02:27:02.159Z,59.80
2019-05-03T02:29:32.553Z,59.40
2019-05-03T02:32:03.343Z,59.50
2019-05-03T02:34:32.728Z,59.30
2019-05-03T02:37:02.941Z,58.40
2019-05-03T02:39:33.485Z,58.80
2019-05-03T02:42:10.998Z,58.90
2019-05-03T02:44:35.523Z,59.20
2019-05-03T02:47:15.899Z,59.40
2019-05-03T02:49:46.254Z,59.40
2019-05-03T02:52:35.824Z,59.70
2019-05-03T02:55:07.894Z,59.90
2019-05-03T02:57:36.285Z,59.90
2019-05-03T03:00:08.522Z,59.90
2019-05-03T03:02:38.142Z,60.20
2019-05-03T03:05:08.388Z,60.40
2019-05-03T03:07:38.012Z,60.80
2019-05-03T03:10:09.133Z,61.30
2019-05-03T03:12:40.451Z,61.60
2019-05-03T03:15:09.978Z,62.00
2019-05-03T03:17:41.283Z,62.50
2019-05-03T03:20:10.510Z,62.80
2019-05-03T03:22:42.163Z,63.30
2019-05-03T03:25:12.631Z,63.30
2019-05-03T03:27:45.316Z,63.30
2019-05-03T03:30:37.466Z,63.30
2019-05-03T03:33:08.743Z,63.00
2019-05-03T03:35:38.963Z,62.80
2019-05-03T03:38:08.295Z,63.30
2019-05-03T03:40:38.431Z,63.30
2019-05-03T03:43:09.186Z,63.60
2019-05-03T03:45:39.718Z,63.80
2019-05-03T03:48:10.139Z,64.00
2019-05-03T03:50:42.026Z,63.90
2019-05-03T03:53:11.894Z,64.10
2019-05-03T03:55:45.647Z,64.10
2019-05-03T03:58:17.711Z,64.30
2019-05-03T04:00:46.423Z,64.50
2019-05-03T04:03:15.786Z,64.60
2019-05-03T04:05:46.732Z,65.00
2019-05-03T04:08:16.167Z,65.20
2019-05-03T04:10:46.414Z,65.50
2019-05-03T04:13:16.264Z,65.90
2019-05-03T04:16:00.232Z,66.10
2019-05-03T04:18:30.467Z,66.20
2019-05-03T04:20:59.035Z,66.30
2019-05-03T04:23:30.135Z,66.40
2019-05-03T04:26:00.672Z,66.60
2019-05-03T04:28:29.358Z,66.60
2019-05-03T04:30:57.990Z,66.80
2019-05-03T04:33:27.152Z,67.10
2019-05-03T04:35:56.186Z,67.30
2019-05-03T04:38:25.552Z,67.30
2019-05-03T04:40:56.267Z,67.50
2019-05-03T04:43:26.384Z,67.30
2019-05-03T04:46:07.126Z,67.30
2019-05-03T04:48:35.887Z,67.20
2019-05-03T04:51:05.964Z,67.20
2019-05-03T04:53:36.321Z,67.10
2019-05-03T04:56:05.702Z,67.20
2019-05-03T04:58:36.478Z,67.10
2019-05-03T05:01:06.754Z,67.10
2019-05-03T05:03:36.207Z,67.00
2019-05-03T05:06:06.359Z,67.00
2019-05-03T05:08:36.202Z,67.00
2019-05-03T05:11:08.013Z,67.00
2019-05-03T05:13:35.790Z,66.90
2019-05-03T05:16:05.977Z,66.80
2019-05-03T05:18:36.446Z,66.70
2019-05-03T05:21:14.850Z,66.60
2019-05-03T05:23:59.795Z,66.70
2019-05-03T05:26:35.853Z,66.70
2019-05-03T05:29:08.938Z,66.60
2019-05-03T05:31:37.429Z,66.40
2019-05-03T05:34:08.551Z,66.40
2019-05-03T05:36:36.025Z,66.40
2019-05-03T05:39:06.417Z,66.50
2019-05-03T05:41:34.935Z,66.60
2019-05-03T05:44:05.403Z,66.80
2019-05-03T05:46:35.599Z,66.50
2019-05-03T05:49:06.385Z,66.40
2019-05-03T05:51:35.287Z,66.40
2019-05-03T05:54:05.209Z,66.30
2019-05-03T05:56:44.711Z,66.30
2019-05-03T05:59:14.961Z,66.20
2019-05-03T06:01:47.774Z,66.10
2019-05-03T06:04:16.212Z,65.90
2019-05-03T06:06:49.713Z,65.80
2019-05-03T06:09:27.513Z,65.40
2019-05-03T06:12:00.953Z,65.10
2019-05-03T06:14:35.535Z,65.00
2019-05-03T06:17:24.547Z,65.10
2019-05-03T06:19:55.060Z,64.90
2019-05-03T06:22:25.755Z,64.80
2019-05-03T06:24:56.199Z,64.90
2019-05-03T06:27:35.079Z,64.90
2019-05-03T06:30:06.580Z,65.20
2019-05-03T06:32:36.669Z,65.20
2019-05-03T06:35:07.129Z,65.20
2019-05-03T06:37:37.176Z,65.00
2019-05-03T06:40:07.522Z,64.70
2019-05-03T06:42:35.946Z,64.80
2019-05-03T06:45:10.446Z,65.00
2019-05-03T06:47:40.276Z,64.80
2019-05-03T06:50:08.575Z,64.70
2019-05-03T06:52:37.044Z,64.60
2019-05-03T06:55:10.648Z,64.30
2019-05-03T06:57:40.155Z,63.40
2019-05-03T07:00:24.784Z,63.50
2019-05-03T07:02:55.119Z,63.20
2019-05-03T07:05:27.994Z,63.20
2019-05-03T07:08:15.321Z,62.90
2019-05-03T07:10:46.460Z,62.90
2019-05-03T07:13:15.277Z,62.30
2019-05-03T07:15:45.460Z,61.30
2019-05-03T07:18:15.720Z,61.60
2019-05-03T07:20:49.246Z,62.60
2019-05-03T07:23:17.660Z,62.40
2019-05-03T07:25:46.477Z,61.70
2019-05-03T07:28:15.834Z,61.60
2019-05-03T07:30:45.400Z,61.70
2019-05-03T07:33:18.431Z,61.60
2019-05-03T07:35:47.122Z,61.60
2019-05-03T07:38:15.916Z,61.10
2019-05-03T07:40:44.681Z,60.90
2019-05-03T07:43:14.876Z,61.10
2019-05-03T07:45:44.655Z,60.30
2019-05-03T07:48:14.991Z,60.00
2019-05-03T07:50:44.728Z,59.50
2019-05-03T07:53:15.068Z,59.20
2019-05-03T07:55:50.770Z,58.80
2019-05-03T07:58:25.265Z,57.50
2019-05-03T08:01:05.467Z,57.00
2019-05-03T08:03:25.647Z,56.20
2019-05-03T08:05:55.326Z,56.00
2019-05-03T08:08:25.042Z,55.30
2019-05-03T08:10:54.971Z,54.90
2019-05-03T08:13:25.346Z,55.30
2019-05-03T08:15:55.822Z,54.90
2019-05-03T08:18:25.732Z,54.40
2019-05-03T08:20:55.635Z,54.80
2019-05-03T08:23:29.295Z,54.20
2019-05-03T08:25:55.645Z,53.10
2019-05-03T08:28:24.808Z,52.10
2019-05-03T08:31:11.414Z,51.20
2019-05-03T08:33:48.498Z,51.60
2019-05-03T08:36:17.290Z,49.60
2019-05-03T08:38:45.798Z,49.20
2019-05-03T08:41:19.075Z,49.40
2019-05-03T08:43:49.102Z,48.40
2019-05-03T08:46:17.526Z,48.90
2019-05-03T08:48:46.269Z,48.00
2019-05-03T08:51:14.947Z,48.10
2019-05-03T08:53:45.668Z,48.60
2019-05-03T08:56:15.505Z,49.00
2019-05-03T08:58:45.102Z,49.40
2019-05-03T09:01:14.779Z,49.60
2019-05-03T09:03:45.586Z,49.60
2019-05-03T09:06:15.427Z,48.60
2019-05-03T09:08:45.857Z,48.40
2019-05-03T09:11:16.408Z,47.30
2019-05-03T09:14:01.954Z,46.70
2019-05-03T09:16:31.009Z,46.80
2019-05-03T09:18:59.822Z,47.40
2019-05-03T09:21:28.608Z,47.40
2019-05-03T09:23:57.385Z,47.20
2019-05-03T09:26:29.168Z,45.60
2019-05-03T09:28:55.978Z,45.00
2019-05-03T09:31:24.961Z,43.90
2019-05-03T09:33:54.848Z,43.90
2019-05-03T09:36:25.332Z,42.60
2019-05-03T09:38:54.978Z,42.30
2019-05-03T09:41:25.646Z,41.70
2019-05-03T09:43:55.510Z,40.90
2019-05-03T09:46:26.480Z,40.00
2019-05-03T09:49:09.472Z,40.20
2019-05-03T09:51:25.914Z,39.20
2019-05-03T09:53:59.193Z,40.10
2019-05-03T09:56:55.220Z,40.00
2019-05-03T09:59:16.026Z,41.00
2019-05-03T10:01:45.649Z,41.50
2019-05-03T10:04:14.268Z,42.00
2019-05-03T10:06:45.128Z,42.50
2019-05-03T10:09:15.248Z,41.90
2019-05-03T10:11:45.594Z,41.90
2019-05-03T10:14:15.568Z,42.90
2019-05-03T10:16:54.613Z,42.90
2019-05-03T10:19:34.786Z,43.40
2019-05-03T10:21:54.378Z,43.90
2019-05-03T10:24:25.324Z,44.50
2019-05-03T10:26:55.200Z,44.80
2019-05-03T10:29:25.115Z,45.40
2019-05-03T10:31:58.998Z,46.10
2019-05-03T10:34:28.091Z,45.40
2019-05-03T10:36:56.559Z,45.80
2019-05-03T10:39:26.292Z,45.40
2019-05-03T10:41:55.144Z,45.40
2019-05-03T10:44:24.617Z,45.20
2019-05-03T10:46:53.138Z,45.40
2019-05-03T10:49:21.837Z,45.50
2019-05-03T10:52:01.294Z,45.90
2019-05-03T10:54:29.712Z,45.50
2019-05-03T10:57:05.128Z,45.50
2019-05-03T10:59:32.912Z,45.80
2019-05-03T11:02:02.973Z,45.40
2019-05-03T11:04:31.454Z,44.80
2019-05-03T11:07:00.170Z,44.80
2019-05-03T11:09:28.852Z,45.30
2019-05-03T11:11:58.887Z,45.30
2019-05-03T11:14:28.227Z,45.80
2019-05-03T11:16:56.812Z,46.50
2019-05-03T11:19:25.480Z,47.10
2019-05-03T11:21:55.269Z,47.20
2019-05-03T11:24:27.193Z,47.10
2019-05-03T11:26:56.178Z,46.10
2019-05-03T11:29:24.790Z,46.50
2019-05-03T11:31:57.868Z,45.50
2019-05-03T11:34:44.913Z,45.80
2019-05-03T11:37:21.919Z,45.70
2019-05-03T11:39:51.438Z,45.00
2019-05-03T11:42:20.219Z,45.20
2019-05-03T11:44:48.701Z,45.60
2019-05-03T11:47:17.144Z,45.70
2019-05-03T11:49:45.648Z,45.80
2019-05-03T11:52:15.862Z,45.30
2019-05-03T11:54:45.321Z,45.00
2019-05-03T11:57:27.536Z,45.80
2019-05-03T11:59:56.353Z,44.80
2019-05-03T12:02:29.402Z,44.90
2019-05-03T12:04:59.546Z,45.90
2019-05-03T12:07:39.315Z,45.30
2019-05-03T12:10:16.541Z,44.90
2019-05-03T12:12:55.304Z,45.90
2019-05-03T12:15:23.901Z,46.00
2019-05-03T12:17:59.239Z,45.20
2019-05-03T12:20:28.876Z,45.30
2019-05-03T12:22:57.758Z,44.80
2019-05-03T12:25:27.178Z,44.70
2019-05-03T12:27:56.532Z,44.80
2019-05-03T12:30:27.672Z,44.90
2019-05-03T12:32:55.345Z,44.80
2019-05-03T12:35:24.667Z,44.70
2019-05-03T12:37:55.091Z,44.80
2019-05-03T12:40:25.429Z,44.10
2019-05-03T12:42:55.288Z,44.50
2019-05-03T12:45:24.894Z,44.70
2019-05-03T12:47:55.733Z,45.00
2019-05-03T12:50:25.152Z,45.00
2019-05-03T12:52:55.500Z,44.10
2019-05-03T12:55:24.859Z,44.10
2019-05-03T12:57:55.311Z,44.30
2019-05-03T13:00:37.700Z,43.30
2019-05-03T13:03:08.052Z,44.00
2019-05-03T13:05:37.023Z,43.70
2019-05-03T13:08:35.243Z,44.40
2019-05-03T13:11:05.328Z,43.70
2019-05-03T13:13:35.878Z,43.70
2019-05-03T13:16:05.454Z,44.30
2019-05-03T13:18:35.178Z,43.90
2019-05-03T13:21:05.738Z,43.60
2019-05-03T13:23:35.663Z,45.10
2019-05-03T13:26:05.919Z,44.00
2019-05-03T13:28:34.764Z,43.60
2019-05-03T13:31:05.477Z,43.30
2019-05-03T13:33:34.819Z,43.50
2019-05-03T13:36:04.156Z,42.50
2019-05-03T13:38:34.724Z,43.10
2019-05-03T13:41:02.972Z,42.70
2019-05-03T13:43:31.813Z,42.90
2019-05-03T13:46:00.360Z,43.40
2019-05-03T13:48:41.674Z,43.50
2019-05-03T13:50:59.187Z,44.10
2019-05-03T13:53:28.023Z,42.50
2019-05-03T13:55:56.410Z,42.30
2019-05-03T13:58:26.435Z,41.80
2019-05-03T14:00:55.236Z,41.50
2019-05-03T14:03:23.996Z,41.70
2019-05-03T14:05:52.683Z,41.40
2019-05-03T14:08:21.117Z,41.60
2019-05-03T14:10:49.537Z,41.00
2019-05-03T14:13:17.952Z,41.60
2019-05-03T14:15:46.804Z,41.30
2019-05-03T14:18:15.571Z,40.90
2019-05-03T14:21:05.029Z,40.80
2019-05-03T14:23:34.722Z,41.50
2019-05-03T14:26:03.538Z,41.30
2019-05-03T14:28:34.528Z,40.40
2019-05-03T14:31:05.133Z,40.30
2019-05-03T14:33:35.319Z,40.30
2019-05-03T14:36:05.349Z,40.60
2019-05-03T14:38:34.512Z,40.50
2019-05-03T14:41:05.372Z,40.90
2019-05-03T14:43:35.551Z,40.90
2019-05-03T14:46:05.557Z,40.30
2019-05-03T14:48:35.120Z,40.70
2019-05-03T14:51:05.467Z,40.60
2019-05-03T14:53:34.803Z,40.10
2019-05-03T14:56:07.777Z,40.10
2019-05-03T14:58:49.257Z,40.70
2019-05-03T15:01:21.744Z,40.60
2019-05-03T15:03:50.174Z,40.80
2019-05-03T15:06:18.593Z,40.00
2019-05-03T15:08:47.929Z,39.20
2019-05-03T15:11:16.632Z,39.50
2019-05-03T15:13:45.606Z,39.20
2019-05-03T15:16:14.461Z,39.30
2019-05-03T15:18:42.993Z,38.80
2019-05-03T15:21:11.739Z,39.20
2019-05-03T15:23:40.162Z,39.20
2019-05-03T15:26:08.874Z,39.20
2019-05-03T15:28:37.427Z,39.90
2019-05-03T15:31:06.311Z,40.00
2019-05-03T15:33:35.333Z,39.90
2019-05-03T15:36:04.794Z,40.20
2019-05-03T15:38:34.650Z,40.00
2019-05-03T15:41:05.415Z,39.70
2019-05-03T15:43:35.293Z,38.90
2019-05-03T15:46:08.117Z,39.90
2019-05-03T15:48:38.160Z,39.80
2019-05-03T15:51:06.604Z,40.20
2019-05-03T15:53:35.434Z,39.10
2019-05-03T15:56:05.399Z,39.70
2019-05-03T15:58:34.165Z,39.20
2019-05-03T16:01:04.522Z,40.00
2019-05-03T16:03:33.010Z,39.70
2019-05-03T16:06:01.491Z,39.60
2019-05-03T16:08:29.914Z,40.00
2019-05-03T16:10:58.340Z,40.40
2019-05-03T16:13:27.094Z,40.00
2019-05-03T16:15:55.519Z,39.90
2019-05-03T16:18:24.563Z,39.90
2019-05-03T16:20:54.665Z,40.40
2019-05-03T16:23:25.011Z,40.50
2019-05-03T16:25:54.383Z,40.60
2019-05-03T16:28:44.692Z,40.80
2019-05-03T16:31:15.070Z,41.00
2019-05-03T16:33:45.696Z,41.20
2019-05-03T16:36:14.884Z,40.70
2019-05-03T16:38:44.973Z,41.10
2019-05-03T16:41:17.446Z,41.10
2019-05-03T16:43:45.552Z,41.30
2019-05-03T16:46:15.090Z,41.30
2019-05-03T16:48:44.787Z,41.40
2019-05-03T16:51:15.016Z,41.90
2019-05-03T16:53:44.549Z,41.70
2019-05-03T16:56:16.560Z,41.90
2019-05-03T16:58:44.631Z,41.90
2019-05-03T17:01:17.837Z,41.70
2019-05-03T17:03:46.776Z,41.80
2019-05-03T17:06:22.729Z,41.50
2019-05-03T17:09:02.029Z,42.00
2019-05-03T17:11:30.488Z,41.80
2019-05-03T17:13:58.894Z,41.90
2019-05-03T17:16:27.922Z,42.30
2019-05-03T17:18:56.795Z,42.70
2019-05-03T17:21:25.589Z,42.90
2019-05-03T17:23:54.497Z,42.90
2019-05-03T17:26:24.887Z,42.80
2019-05-03T17:28:55.233Z,42.90
2019-05-03T17:31:24.355Z,42.80
2019-05-03T17:33:56.504Z,43.20
2019-05-03T17:36:25.063Z,43.00
2019-05-03T17:38:55.636Z,43.60
2019-05-03T17:41:35.015Z,43.60
2019-05-03T17:44:05.064Z,43.70
2019-05-03T17:46:34.786Z,44.20
2019-05-03T17:49:05.232Z,44.20
2019-05-03T17:51:39.550Z,44.40
2019-05-03T17:54:28.283Z,44.50
2019-05-03T17:57:07.085Z,44.60
2019-05-03T17:59:37.234Z,44.60
2019-05-03T18:02:22.431Z,45.20
2019-05-03T18:05:10.498Z,45.30
2019-05-03T18:07:57.338Z,45.20
2019-05-03T18:10:27.650Z,45.20
2019-05-03T18:12:56.257Z,45.10
2019-05-03T18:15:25.165Z,45.20
2019-05-03T18:17:54.928Z,45.20
2019-05-03T18:20:25.549Z,45.40
2019-05-03T18:22:54.813Z,45.50
2019-05-03T18:25:24.811Z,45.60
2019-05-03T18:27:55.051Z,45.70
2019-05-03T18:30:23.607Z,45.80
2019-05-03T18:32:52.052Z,46.00
2019-05-03T18:35:20.492Z,45.70
2019-05-03T18:37:51.032Z,45.90
2019-05-03T18:40:19.496Z,46.10
2019-05-03T18:42:49.619Z,45.70
2019-05-03T18:45:19.752Z,45.50
2019-05-03T18:47:48.772Z,45.50
2019-05-03T18:50:18.116Z,45.60
2019-05-03T18:52:46.552Z,45.80
2019-05-03T18:55:15.069Z,46.00
2019-05-03T18:57:44.738Z,46.00
2019-05-03T19:00:15.359Z,46.10
2019-05-03T19:02:44.541Z,46.50
2019-05-03T19:05:13.092Z,46.60
2019-05-03T19:07:50.176Z,46.60
2019-05-03T19:10:20.322Z,46.80
2019-05-03T19:12:55.080Z,47.00
2019-05-03T19:15:25.170Z,47.10
2019-05-03T19:17:58.332Z,47.40
2019-05-03T19:20:26.760Z,48.10
2019-05-03T19:22:56.256Z,48.60
2019-05-03T19:25:25.622Z,48.50
2019-05-03T19:27:54.573Z,48.60
2019-05-03T19:30:24.464Z,48.50
2019-05-03T19:32:55.180Z,48.80
2019-05-03T19:35:24.969Z,48.90
2019-05-03T19:37:55.429Z,49.50
2019-05-03T19:40:25.614Z,49.80
2019-05-03T19:42:55.200Z,49.50
2019-05-03T19:45:24.815Z,49.50
2019-05-03T19:47:55.221Z,49.40
2019-05-03T19:50:24.835Z,49.30
2019-05-03T19:52:57.779Z,49.60
2019-05-03T19:55:26.195Z,49.50
2019-05-03T19:57:54.919Z,49.60
2019-05-03T20:00:25.679Z,49.20
2019-05-03T20:02:55.912Z,49.40
2019-05-03T20:05:25.953Z,49.60
2019-05-03T20:08:07.823Z,48.80
2019-05-03T20:10:36.247Z,49.10
2019-05-03T20:13:05.032Z,49.40
2019-05-03T20:15:33.613Z,48.90
2019-05-03T20:18:02.048Z,49.00
2019-05-03T20:20:30.797Z,49.50
2019-05-03T20:22:59.320Z,49.30
2019-05-03T20:25:27.765Z,49.60
2019-05-03T20:27:56.546Z,49.70
2019-05-03T20:30:25.538Z,49.70
2019-05-03T20:32:55.555Z,49.80
2019-05-03T20:35:25.225Z,49.90
2019-05-03T20:37:55.337Z,50.00
2019-05-03T20:40:25.600Z,50.00
2019-05-03T20:42:55.834Z,50.00
2019-05-03T20:45:44.690Z,50.50
2019-05-03T20:48:15.023Z,50.50
2019-05-03T20:50:44.721Z,50.70
2019-05-03T20:53:13.332Z,50.90
2019-05-03T20:55:42.121Z,50.80
2019-05-03T20:58:11.458Z,51.00
2019-05-03T21:00:40.754Z,50.70
2019-05-03T21:03:09.182Z,50.90
2019-05-03T21:05:37.911Z,51.10
2019-05-03T21:08:06.375Z,51.40
2019-05-03T21:10:35.060Z,51.70
2019-05-03T21:13:05.266Z,51.30
2019-05-03T21:15:50.597Z,51.40
2019-05-03T21:18:37.196Z,51.80
2019-05-03T21:21:13.068Z,52.20
2019-05-03T21:23:46.410Z,52.10
2019-05-03T21:26:16.612Z,52.10
2019-05-03T21:28:45.334Z,52.20
2019-05-03T21:31:15.621Z,52.50
2019-05-03T21:33:44.564Z,52.80
2019-05-03T21:36:15.085Z,52.90
2019-05-03T21:38:44.415Z,53.00
2019-05-03T21:41:13.095Z,53.00
2019-05-03T21:43:41.548Z,52.90
2019-05-03T21:46:25.583Z,53.40
2019-05-03T21:49:01.288Z,54.40
2019-05-03T21:51:30.963Z,54.70
2019-05-03T21:53:59.394Z,55.00
2019-05-03T21:56:28.175Z,54.60
2019-05-03T21:58:56.599Z,54.60
2019-05-03T22:01:25.930Z,54.50
2019-05-03T22:03:54.681Z,54.50
2019-05-03T22:06:24.695Z,54.70
2019-05-03T22:08:55.307Z,54.90
2019-05-03T22:11:25.136Z,55.10
2019-05-03T22:13:57.076Z,54.90
2019-05-03T22:16:34.549Z,54.70
2019-05-03T22:19:03.079Z,54.80
2019-05-03T22:21:34.701Z,54.80
2019-05-03T22:24:08.289Z,55.10
2019-05-03T22:26:50.778Z,54.50
2019-05-03T22:29:19.553Z,54.90
2019-05-03T22:31:48.048Z,55.30
2019-05-03T22:34:16.465Z,55.00
2019-05-03T22:36:45.509Z,55.00
2019-05-03T22:39:15.666Z,55.70
2019-05-03T22:41:44.089Z,55.80
2019-05-03T22:44:16.748Z,56.30
2019-05-03T22:46:44.618Z,56.40
2019-05-03T22:49:15.474Z,56.50
2019-05-03T22:51:45.139Z,56.60
2019-05-03T22:54:15.390Z,56.80
2019-05-03T22:56:44.817Z,56.80
2019-05-03T22:59:14.701Z,56.80
2019-05-03T23:01:45.490Z,56.80
2019-05-03T23:04:14.616Z,56.80
2019-05-03T23:06:46.650Z,57.20
2019-05-03T23:09:15.631Z,57.50
2019-05-03T23:11:44.905Z,57.10
2019-05-03T23:14:15.342Z,57.00
2019-05-03T23:16:44.923Z,56.90
2019-05-03T23:19:15.017Z,56.90
2019-05-03T23:21:51.473Z,57.10
2019-05-03T23:24:19.907Z,57.30
2019-05-03T23:26:48.324Z,57.40
2019-05-03T23:29:17.818Z,57.60
2019-05-03T23:31:46.245Z,57.50
2019-05-03T23:34:14.731Z,57.60
2019-05-03T23:36:43.200Z,58.00
2019-05-03T23:39:12.079Z,58.40
2019-05-03T23:41:40.510Z,58.40
2019-05-03T23:44:09.283Z,58.60
2019-05-03T23:46:58.135Z,58.90
2019-05-03T23:49:28.349Z,59.00
2019-05-03T23:51:58.818Z,59.10
2019-05-03T23:54:28.062Z,59.00
2019-05-03T23:56:56.619Z,59.30
2019-05-03T23:59:25.051Z,59.60
